D/T METAR WX W/DIR W/SPE G/SPE TEMP DEWP
5/06/20 06:50 EGJJ 050550Z AUTO 28015KT 9999 BKN007/// OVC008/// 13/12 Q1001 W (280°) 17.3mph 13°C 12°C
5/06/20 06:20 EGJJ 050520Z AUTO 28015KT 9999 FEW006/// BKN008/// BKN009/// 13/12 Q1001 W (280°) 17.3mph 13°C 12°C
5/06/20 05:50 EGJJ 050450Z AUTO 28016KT 9999 BKN006/// OVC007/// 13/12 Q1001 RESHRA W (280°) 18.4mph 13°C 12°C
5/06/20 05:20 EGJJ 050420Z AUTO 28016KT 9999 FEW004/// BKN007/// BKN008/// 12/12 Q1000 RESHRA W (280°) 18.4mph 12°C 12°C
5/06/20 04:50 EGJJ 050350Z AUTO 28016KT 9999 BKN005/// OVC006/// 13/12 Q1000 RESHRA W (280°) 18.4mph 13°C 12°C
5/06/20 04:20 EGJJ 050320Z AUTO 28013KT 9999 FEW003/// SCT007/// BKN011/// 12/12 Q1001 RESHRA W (280°) 15.0mph 12°C 12°C
5/06/20 03:50 EGJJ 050250Z AUTO 28017KT 8000 -DZ SCT004/// OVC005/// 13/12 Q1001 RERA -DZ W (280°) 19.6mph 13°C 12°C
5/06/20 03:20 EGJJ 050220Z AUTO 26017KT 9999 SCT002/// OVC003/// 12/12 Q1001 RERA W (260°) 19.6mph 12°C 12°C
5/06/20 02:50 EGJJ 050150Z AUTO 27014KT 9999 SCT006/// BKN007/// OVC011/// 12/11 Q1002 REDZ W (270°) 16.1mph 12°C 11°C
5/06/20 02:20 EGJJ 050120Z AUTO 26014KT 9999 SCT004/// BKN006/// BKN007/// 12/11 Q1002 W (260°) 16.1mph 12°C 11°C
5/06/20 01:50 EGJJ 050050Z AUTO 26014KT 9999 SCT005/// BKN006/// OVC008/// 12/11 Q1002 W (260°) 16.1mph 12°C 11°C
5/06/20 01:20 EGJJ 050020Z AUTO 25014KT 9999 SCT006/// OVC007/// 12/11 Q1003 REDZ WSW (250°) 16.1mph 12°C 11°C
5/06/20 00:50 EGJJ 042350Z AUTO 26011KT 9999 FEW005/// SCT007/// BKN008/// 12/11 Q1003 RERA W (260°) 12.7mph 12°C 11°C
5/06/20 00:20 EGJJ 042320Z AUTO 27011KT 9999 SCT003/// BKN004/// OVC006/// 12/10 Q1004 RERA W (270°) 12.7mph 12°C 10°C
4/06/20 23:50 EGJJ 042250Z AUTO 28015KT 6000 RA FEW003/// SCT009/// BKN012/// 12/10 Q1004 REDZ RA W (280°) 17.3mph 12°C 10°C
4/06/20 23:20 EGJJ 042220Z AUTO 28014KT 9999 SCT012/// BKN015/// BKN021/// 12/10 Q1004 W (280°) 16.1mph 12°C 10°C
4/06/20 22:50 EGJJ 042150Z AUTO 28011KT 9999 SCT012/// BKN015/// BKN023/// 12/10 Q1005 W (280°) 12.7mph 12°C 10°C
4/06/20 22:20 EGJJ 042120Z AUTO 28012KT 9999 FEW015/// BKN035/// OVC041/// 12/09 Q1005 W (280°) 13.8mph 12°C 9°C
4/06/20 21:50 EGJJ 042050Z AUTO 29012KT 9999 BKN014/// BKN017/// BKN027/// 12/09 Q1005 WNW (290°) 13.8mph 12°C 9°C
4/06/20 21:20 EGJJ 042020Z AUTO 29014KT 9999 FEW012/// SCT019/// 12/09 Q1005 WNW (290°) 16.1mph 12°C 9°C
4/06/20 20:50 EGJJ 041950Z AUTO 29013KT 9999 FEW021/// SCT042/// 13/09 Q1005 WNW (290°) 15.0mph 13°C 9°C
4/06/20 20:20 EGJJ 041920Z AUTO 29013KT 9999 FEW019/// BKN023/// BKN027/// 13/08 Q1005 WNW (290°) 15.0mph 13°C 8°C
4/06/20 19:50 EGJJ 041850Z AUTO 29013KT 9999 FEW023/// 13/08 Q1005 WNW (290°) 15.0mph 13°C 8°C
4/06/20 19:20 EGJJ 041820Z AUTO 29013KT 9999 FEW022/// 13/08 Q1005 WNW (290°) 15.0mph 13°C 8°C
4/06/20 18:50 EGJJ 041750Z 29013KT 9999 FEW020 13/09 Q1005 WNW (290°) 15.0mph 13°C 9°C
4/06/20 18:20 EGJJ 041720Z 29012KT 9999 FEW020 13/09 Q1005 WNW (290°) 13.8mph 13°C 9°C
4/06/20 17:50 EGJJ 041650Z 28011KT 260V320 9999 FEW022 14/09 Q1005 W (280°) 12.7mph 14°C 9°C
4/06/20 17:20 EGJJ 041620Z 29013KT 9999 FEW020 14/08 Q1005 WNW (290°) 15.0mph 14°C 8°C
4/06/20 16:50 EGJJ 041550Z 29010KT 9999 FEW020 14/08 Q1005 WNW (290°) 11.5mph 14°C 8°C
4/06/20 16:20 EGJJ 041520Z 30012KT 270V340 9999 FEW022 14/08 Q1005 WNW (300°) 13.8mph 14°C 8°C
4/06/20 15:50 EGJJ 041450Z 32010KT 290V360 9999 FEW020 14/08 Q1005 NW (320°) 11.5mph 14°C 8°C
4/06/20 14:50 EGJJ 041350Z 33009KT 290V030 9999 SCT020 13/08 Q1005 NNW (330°) 10.4mph 13°C 8°C
4/06/20 14:20 EGJJ 041320Z 33010KT 280V360 9999 FEW017 SCT020 13/08 Q1005 NNW (330°) 11.5mph 13°C 8°C
4/06/20 13:50 EGJJ 041250Z 33010KT 300V010 9999 FEW015 SCT017 13/08 Q1005 NNW (330°) 11.5mph 13°C 8°C
4/06/20 13:20 EGJJ 041220Z 33010KT 300V360 9999 FEW015 SCT017 13/08 Q1006 NNW (330°) 11.5mph 13°C 8°C
4/06/20 12:20 EGJJ 041120Z 34009KT 300V020 9999 BKN015 13/09 Q1006 NNW (340°) 10.4mph 13°C 9°C
4/06/20 11:50 EGJJ 041050Z 33010KT 300V010 9999 BKN015 12/09 Q1005 NNW (330°) 11.5mph 12°C 9°C
4/06/20 11:20 EGJJ 041020Z 35010KT 320V030 9999 BKN015 12/09 Q1005 N (350°) 11.5mph 12°C 9°C
4/06/20 10:50 EGJJ 040950Z 35011KT 320V020 9999 BKN015 12/09 Q1005 N (350°) 12.7mph 12°C 9°C
4/06/20 09:50 EGJJ 040850Z 36008KT 320V030 9999 BKN013 12/09 Q1005 N (360°) 9.2mph 12°C 9°C
4/06/20 09:20 EGJJ 040820Z 35013KT 9999 BKN012 12/10 Q1005 N (350°) 15.0mph 12°C 10°C
4/06/20 08:50 EGJJ 040750Z 36012KT 330V030 9999 BKN011 12/10 Q1005 N (360°) 13.8mph 12°C 10°C
4/06/20 08:20 EGJJ 040720Z 01011KT 330V030 9999 BKN010 12/10 Q1005 N (10°) 12.7mph 12°C 10°C
4/06/20 07:50 EGJJ 040650Z 01013KT 340V040 9999 BKN010 12/10 Q1004 N (10°) 15.0mph 12°C 10°C
4/06/20 07:20 EGJJ 040620Z 01012KT 330V040 9999 SCT008 BKN010 11/10 Q1004 N (10°) 13.8mph 11°C 10°C
4/06/20 06:50 EGJJ 040550Z AUTO 01012KT 9999 BKN007/// OVC010/// 12/11 Q1004 N (10°) 13.8mph 12°C 11°C
4/06/20 06:20 EGJJ 040520Z AUTO 01011KT 9999 SCT008/// BKN010/// BKN014/// 12/11 Q1004 N (10°) 12.7mph 12°C 11°C
4/06/20 05:50 EGJJ 040450Z AUTO 02012KT 9999 SCT010/// SCT013/// BKN021/// 12/11 Q1004 RERA NNE (20°) 13.8mph 12°C 11°C
4/06/20 05:20 EGJJ 040420Z AUTO 03010KT 010V070 9999 FEW013/// BKN021/// OVC024/// 11/10 Q1004 RERA NNE (30°) 11.5mph 11°C 10°C
4/06/20 04:50 EGJJ 040350Z AUTO 03013KT 9999 RA FEW009/// SCT011/// BKN014/// 11/10 Q1004 REDZ RA NNE (30°) 15.0mph 11°C 10°C
4/06/20 04:20 EGJJ 040320Z AUTO 03014KT 6000 RA FEW004/// BKN006/// OVC007/// 11/10 Q1004 RA NNE (30°) 16.1mph 11°C 10°C
4/06/20 03:50 EGJJ 040250Z AUTO 03012KT 6000 RA BKN005/// OVC007/// 12/11 Q1004 REDZ RA NNE (30°) 13.8mph 12°C 11°C
4/06/20 03:20 EGJJ 040220Z AUTO 03015KT 3900 SCT005/// BKN007/// BKN009/// 12/11 Q1004 REDZ NNE (30°) 17.3mph 12°C 11°C
4/06/20 02:50 EGJJ 040150Z AUTO 02013KT 340V050 9999 -DZ BKN006/// OVC008/// 12/11 Q1004 -DZ NNE (20°) 15.0mph 12°C 11°C
4/06/20 02:20 EGJJ 040120Z AUTO 03012KT 9000 -DZ OVC005/// 12/11 Q1004 -DZ NNE (30°) 13.8mph 12°C 11°C
4/06/20 01:50 EGJJ 040050Z AUTO 02013KT 9000 -DZ SCT007/// BKN008/// BKN010/// 13/11 Q1005 RERA -DZ NNE (20°) 15.0mph 13°C 11°C
4/06/20 01:20 EGJJ 040020Z AUTO 03014KT 9000 -DZ FEW019/// 13/11 Q1005 RERA -DZ NNE (30°) 16.1mph 13°C 11°C
4/06/20 00:50 EGJJ 032350Z AUTO 02012KT 350V050 7000 DZ SCT008/// SCT010/// OVC018/// 13/12 Q1005 RERA DZ NNE (20°) 13.8mph 13°C 12°C
4/06/20 00:20 EGJJ 032320Z AUTO 02012KT 9999 -DZ FEW010/// 14/12 Q1005 -DZ NNE (20°) 13.8mph 14°C 12°C
3/06/20 23:50 EGJJ 032250Z AUTO 02012KT 9999 FEW008/// 14/12 Q1005 NNE (20°) 13.8mph 14°C 12°C
3/06/20 23:20 EGJJ 032220Z AUTO 02010KT 9999 NCD 14/12 Q1005 NNE (20°) 11.5mph 14°C 12°C
3/06/20 22:50 EGJJ 032150Z AUTO 01009KT 9999 NCD 14/12 Q1005 N (10°) 10.4mph 14°C 12°C
3/06/20 22:20 EGJJ 032120Z AUTO 36009KT 9999 NCD 13/12 Q1005 N (360°) 10.4mph 13°C 12°C
3/06/20 21:50 EGJJ 032050Z AUTO 01006KT 9999 NCD 14/12 Q1005 N (10°) 6.9mph 14°C 12°C
3/06/20 21:20 EGJJ 032020Z AUTO 01007KT 9999 NCD 14/12 Q1005 N (10°) 8.1mph 14°C 12°C
3/06/20 20:50 EGJJ 031950Z AUTO 03008KT 360V060 9999 NCD 14/11 Q1005 NNE (30°) 9.2mph 14°C 11°C
3/06/20 20:20 EGJJ 031920Z AUTO 03009KT 9999 NCD 14/11 Q1005 NNE (30°) 10.4mph 14°C 11°C
3/06/20 19:20 EGJJ 031820Z AUTO 03011KT 010V070 9999 NCD 15/10 Q1005 NNE (30°) 12.7mph 15°C 10°C
3/06/20 18:50 EGJJ 031750Z 03012KT 010V070 9999 FEW045 16/10 Q1005 NNE (30°) 13.8mph 16°C 10°C
3/06/20 18:20 EGJJ 031720Z 02014KT 9999 SCT038 16/10 Q1005 NNE (20°) 16.1mph 16°C 10°C
3/06/20 17:50 EGJJ 031650Z 01014KT 9999 FEW036 16/11 Q1005 N (10°) 16.1mph 16°C 11°C
3/06/20 17:20 EGJJ 031620Z 02013KT 9999 FEW044 16/11 Q1005 NNE (20°) 15.0mph 16°C 11°C
3/06/20 16:50 EGJJ 031550Z 02014KT 9999 FEW048 17/12 Q1005 NNE (20°) 16.1mph 17°C 12°C
3/06/20 16:20 EGJJ 031520Z 02015KT 9999 FEW038 17/12 Q1005 NNE (20°) 17.3mph 17°C 12°C
3/06/20 15:50 EGJJ 031450Z 01013G23KT 340V050 CAVOK 16/11 Q1005 N (10°) 15.0mph 26.5mph 16°C 11°C
3/06/20 14:50 EGJJ 031350Z 01011KT 340V060 CAVOK 18/12 Q1006 N (10°) 12.7mph 18°C 12°C
3/06/20 14:20 EGJJ 031320Z 01012KT CAVOK 18/11 Q1006 N (10°) 13.8mph 18°C 11°C
3/06/20 13:50 EGJJ 031250Z 01010KT 330V040 CAVOK 18/12 Q1006 N (10°) 11.5mph 18°C 12°C
3/06/20 13:20 EGJJ 031220Z 33006KT 290V360 CAVOK 19/11 Q1006 NNW (330°) 6.9mph 19°C 11°C
3/06/20 12:50 EGJJ 031150Z 33006KT 240V050 9999 FEW028 19/12 Q1007 NNW (330°) 6.9mph 19°C 12°C
3/06/20 12:20 EGJJ 031120Z 28006KT 240V320 CAVOK 19/12 Q1007 W (280°) 6.9mph 19°C 12°C
3/06/20 11:20 EGJJ 031020Z 28009KT 250V320 CAVOK 18/13 Q1007 W (280°) 10.4mph 18°C 13°C
3/06/20 10:50 EGJJ 030950Z 28008KT 250V310 CAVOK 18/12 Q1008 W (280°) 9.2mph 18°C 12°C
3/06/20 10:20 EGJJ 030920Z 27006KT 240V320 CAVOK 19/12 Q1008 W (270°) 6.9mph 19°C 12°C
3/06/20 09:50 EGJJ 030850Z 36006KT 320V050 CAVOK 19/10 Q1008 N (360°) 6.9mph 19°C 10°C
3/06/20 09:20 EGJJ 030820Z 32007KT 290V010 9999 FEW030 18/10 Q1008 NW (320°) 8.1mph 18°C 10°C
3/06/20 08:50 EGJJ 030750Z AUTO 36005KT 320V030 9999 NCD 18/11 Q1008 N (360°) 5.8mph 18°C 11°C
3/06/20 08:20 EGJJ 030720Z AUTO 32005KT 9999 NCD 16/13 Q1009 NW (320°) 5.8mph 16°C 13°C
3/06/20 07:50 EGJJ 030650Z AUTO 30004KT 240V320 9999 NCD 16/13 Q1009 WNW (300°) 4.6mph 16°C 13°C
3/06/20 07:20 EGJJ 030620Z AUTO 33004KT 300V360 9999 NCD 15/13 Q1009 NNW (330°) 4.6mph 15°C 13°C
3/06/20 06:50 EGJJ 030550Z AUTO 28005KT 9999 NCD 14/13 Q1009 W (280°) 5.8mph 14°C 13°C
3/06/20 06:20 EGJJ 030520Z AUTO 28005KT 9999 NCD 14/12 Q1009 W (280°) 5.8mph 14°C 12°C
3/06/20 05:50 EGJJ 030450Z AUTO 31002KT 9999 NCD 14/12 Q1010 NW (310°) 2.3mph 14°C 12°C
3/06/20 05:20 EGJJ 030420Z AUTO 29002KT 9999 NCD 14/12 Q1010 WNW (290°) 2.3mph 14°C 12°C
3/06/20 04:50 EGJJ 030350Z AUTO 23003KT 140V270 9999 NCD 14/11 Q1010 SW (230°) 3.5mph 14°C 11°C
3/06/20 04:20 EGJJ 030320Z AUTO 20003KT 170V270 9999 NCD 14/10 Q1011 SSW (200°) 3.5mph 14°C 10°C